Weather observations for the past three days for
Dubuque Regional Airport
Metric (Imperial)
Date Time (cdt) Wind (kph) Vis. (km) Weather Sky Cond. Temperature (ºC) Relative Humidity Wind Chill (°C) Heat Index (°C) Pressure Precipitation (cm)
Air Dwpt 6 hour altimeter (cm) sea level (mb) 1 hr 3 hr 6 hr
Max. Min.
05 17:53 N 20 16.09 Fair CLR 12.2 -1.7 38% 75.67 1009.2
05 16:53 NW 19 G 39 16.09 Fair CLR 13.3 -2.2 34% 75.69 1009.4
05 15:53 NW 22 G 50 16.09 A Few Clouds FEW080 13.9 -2.2 33% 75.69 1009.4
05 14:53 W 24 G 41 16.09 Fair CLR 12.8 -2.2 36% 75.74 1010.1
05 13:53 NW 15 16.09 A Few Clouds FEW070 13.3 -0.6 39% 75.79 1010.6
05 12:53 NW 24 G 33 16.09 Fair CLR 12.2 -1.7 12.8 5.6 38% 75.79 1010.9
05 11:53 W 22 G 31 16.09 Fair CLR 10.6 -3.3 38% 75.79 1010.8
05 10:53 N 13 G 30 16.09 Fair CLR 10.6 -2.8 39% 75.77 1010.3
05 09:53 N 19 16.09 Fair CLR 10 -4.4 36% 8 75.77 1010.4
05 08:53 NW 15 16.09 Fair CLR 9.4 -4.4 38% 7 75.77 1010.2
05 07:53 W 11 16.09 Fair CLR 6.7 -0.6 60% 5 75.82 1011.0
05 06:53 W 6 16.09 Fair CLR 5.6 -0.6 10 4.4 65% 75.77 1010.3
05 05:53 NW 7 16.09 Fair CLR 5.6 -2.2 58% 4 75.62 1008.0
05 04:53 NW 9 16.09 Fair CLR 5.6 -1.1 62% 4 75.62 1008.0
05 03:53 N 19 16.09 Partly Cloudy SCT120 8.3 -4.4 41% 6 75.51 1006.5
05 02:53 N 31 G 46 16.09 Mostly Cloudy BKN120 8.9 -3.9 41% 5 75.51 1006.5
05 01:53 N 15 16.09 Fair CLR 8.9 -1.1 50% 7 75.41 1005.1
05 00:53 N 30 G 41 16.09 Fair CLR 10 -1.7 19.4 10 44% 7 75.39 1004.9
04 23:53 NW 24 G 44 16.09 Fair CLR 11.1 -0.6 45% 75.36 1004.4
04 22:53 NW 33 G 46 16.09 A Few Clouds and Breezy FEW120 12.8 0 42% 75.31 1003.9
04 21:53 NW 20 16.09 Fair CLR 13.3 -0.6 39% 75.29 1003.3
04 20:53 NW 15 16.09 Fair CLR 13.3 1.1 44% 75.16 1001.9
04 19:53 NW 31 G 48 16.09 Fair CLR 16.7 1.1 35% 75.08 1000.9
04 18:53 NW 33 G 48 16.09 Fair and Breezy CLR 19.4 2.2 26.1 19.4 32% 74.98 999.5
04 17:53 NW 35 G 56 16.09 Fair and Breezy CLR 22.2 4.4 31% 74.93 998.8
04 16:53 NW 28 G 52 16.09 Partly Cloudy SCT100 SCT120 25 8.9 36% 26 74.85 997.6
04 15:53 W 33 G 50 16.09 Partly Cloudy and Breezy SCT095 24.4 6.1 31% 25 74.85 997.6
04 14:53 W 43 G 56 16.09 Partly Cloudy and Windy FEW090 SCT110 26.1 6.7 29% 26 74.88 998.0
04 13:53 W 41 G 56 16.09 Partly Cloudy and Breezy SCT090 SCT110 25 6.7 31% 25 74.93 998.6
04 12:53 W 35 G 56 16.09 Fair and Breezy CLR 24.4 6.1 25 7.8 31% 25 74.9 998.4
04 11:53 SW 28 16.09 Fair CLR 22.8 6.7 35% 74.98 999.1
04 10:53 SW 31 G 50 16.09 Fair CLR 21.1 6.1 38% 75.01 999.8
04 09:53 SW 24 16.09 Fair CLR 19.4 6.7 44% 75.06 1000.5
04 08:53 SW 15 16.09 Fair CLR 16.7 6.1 50% 75.13 1001.5
04 07:53 SW 7 16.09 Fair CLR 12.2 6.1 67% 75.16 1002.1
04 06:53 SW 7 16.09 Fair CLR 7.8 3.3 11.1 5.6 73% 7 75.18 1002.3
04 05:53 S 9 16.09 Fair CLR 6.7 1.7 71% 5 75.21 1002.4
04 04:53 S 9 16.09 Fair CLR 6.1 1.7 74% 4 75.23 1003.0
04 03:53 S 7 16.09 Fair CLR 6.7 2.8 76% 6 75.26 1003.4
04 02:53 SW 7 16.09 Fair CLR 7.8 2.2 68% 7 75.31 1003.9
04 01:53 S 7 16.09 Fair CLR 8.9 2.8 66% 8 75.36 1004.5
04 00:53 Calm 16.09 Fair CLR 11.1 2.2 21.1 10.6 55% 75.41 1005.5
03 23:53 Calm 16.09 Fair CLR 12.2 2.2 51% 75.46 1006.0
03 22:53 W 6 16.09 Fair CLR 12.2 2.2 51% 75.46 1006.2
03 21:53 W 7 16.09 Fair CLR 13.9 2.2 45% 75.46 1006.2
03 20:53 W 15 16.09 Fair CLR 15 2.8 44% 75.46 1006.1
03 19:53 NW 9 16.09 Fair CLR 17.2 2.8 38% 75.39 1005.3
03 18:53 NW 19 16.09 Fair CLR 21.1 2.2 22.8 17.8 29% 75.39 1004.8
03 17:53 W 22 16.09 Fair CLR 22.8 3.9 29% 75.36 1004.6
03 16:53 W 26 G 37 16.09 Partly Cloudy SCT090 22.8 4.4 30% 75.36 1004.6
03 15:53 W 24 16.09 Partly Cloudy SCT080 21.7 6.1 36% 75.39 1004.9
03 14:53 SW 30 G 50 16.09 Fair CLR 21.1 6.7 39% 75.44 1005.7
03 13:53 W 20 G 43 16.09 Fair CLR 19.4 6.1 42% 75.49 1006.6
03 12:53 W 26 G 46 16.09 Fair CLR 17.8 5 17.8 8.3 43% 75.57 1007.4
03 11:53 SW 35 G 48 16.09 Fair and Breezy CLR 16.1 5 48% 75.59 1008.0
03 10:53 SW 35 G 50 16.09 A Few Clouds and Breezy FEW100 15 4.4 49% 75.62 1008.4
03 09:53 SW 26 G 39 16.09 Partly Cloudy FEW080 SCT100 12.8 5 59% 75.69 1009.4
03 08:53 S 33 G 48 16.09 Partly Cloudy and Breezy FEW080 SCT110 10.6 3.9 64% 75.69 1009.4
03 07:53 S 24 16.09 Light Rain BKN070 BKN095 BKN120 8.3 3.9 74% 5 75.84 1011.4
03 06:53 SW 20 16.09 Overcast BKN050 OVC070 8.9 3.9 9.4 7.2 71% 6 75.92 1012.4 0.03 0.13
03 05:53 SW 11 16.09 Overcast BKN050 OVC070 8.9 5.6 80% 7 75.97 1012.8 0.08
03 04:53 SW 24 16.09 Light Rain BKN060 OVC110 8.3 5 80% 5 75.97 1012.9 0.03
03 03:53 SW 15 16.09 Mostly Cloudy BKN120 8.3 0.6 59% 6 75.97 1013.0
03 02:53 S 17 16.09 Partly Cloudy SCT120 7.8 0.6 61% 5 75.97 1013.0
03 01:53 S 17 16.09 Mostly Cloudy BKN120 7.2 0.6 63% 5 76 1013.6
03 00:53 SW 15 16.09 Fair CLR 7.8 0 13.9 6.1 58% 6 76.02 1014.0
02 23:53 SW 15 16.09 Fair CLR 7.2 0.6 63% 5 76.05 1014.3
02 22:53 SW 13 16.09 Fair CLR 6.7 0.6 65% 4 76.1 1015.1
02 21:53 SW 11 16.09 Fair CLR 6.7 0 63% 5 76.15 1015.6
02 20:53 SW 7 16.09 Fair CLR 8.3 -0.6 54% 7 76.15 1015.6
02 19:53 SW 15 16.09 Fair CLR 10.6 -1.1 45% 76.12 1015.6
02 18:53 W 15 16.09 Fair CLR 13.9 -3.3 15 12.2 30% 76.17 1016.1
Date Time (cdt) Wind (kph) Vis. (km) Weather Sky Cond. Air Dwpt Max. Min. Relative Humidity Wind Chill (°C) Heat Index (°C) altimeter (cm) sea level (mb) 1 hr 3 hr 6 hr
6 hour
Temperature (ºC) Pressure Precipitation (cm)